Latest Weather Observations for Robe Airport

IDS60801

Issued at 10:35 pm CST Sunday 20 April 2014 (issued every 30 minutes, with the page automatically refreshed every 10 minutes)

About weather observations | Map of weather stations | Latest weather observations for SA | Other Formats
Station Details ID: 026105 Name: ROBE AIRFIELD Lat: -37.18 Lon: 139.81 Height: 3.0 m
Data from the previous 72 hours. | See also: Recent months for locations in South Australia
Date/Time
CST
Temp
°C
App
Temp
°C
Dew
Point
Rel
Hum
%
Delta-T
°C
Wind Press
QNH
hPa
Press
MSL
hPa
Rain
since 9 am
mm
Dir
 
Spd
km/h
Gust
km/h
Spd
kts
Gust
kts
20/10:30pm 9.9 9.7 9.0 94 0.4 N 0 0 0 0 1017.7 1017.7 0.0
20/10:00pm 11.3 11.5 10.7 96 0.3 N 0 0 0 0 1017.8 - 0.0
20/09:30pm 9.8 9.5 8.7 93 0.5 CALM 0 0 0 0 1018.0 1018.0 0.0
20/09:00pm 11.7 11.8 10.3 91 0.7 CALM 0 0 0 0 1017.9 1017.9 0.0
20/08:30pm 12.2 12.4 10.4 89 0.9 CALM 0 0 0 0 1017.8 1017.8 0.0
20/08:00pm 14.1 13.7 12.3 89 1.0 W 6 9 3 5 1017.7 - 0.0
20/07:30pm 14.5 14.1 12.4 87 1.1 W 6 9 3 5 1017.5 1017.5 0.0
20/07:00pm 14.9 14.4 12.8 87 1.2 WSW 7 11 4 6 1017.3 - 0.0
20/06:30pm 15.4 15.3 13.2 87 1.2 W 6 11 3 6 1017.0 1017.0 0.0
20/06:00pm 15.8 15.6 13.5 86 1.3 W 7 13 4 7 1016.9 1016.9 0.0
20/05:30pm 16.1 14.6 13.0 82 1.7 W 13 20 7 11 1016.6 1016.6 0.0
20/05:00pm 16.7 15.6 14.3 86 1.4 NW 13 19 7 10 1016.5 - 0.0
20/04:30pm 16.4 14.0 13.9 85 1.4 NNW 19 30 10 16 1016.3 1016.3 0.0
20/04:00pm 17.4 14.5 13.9 80 2.0 NNW 22 30 12 16 1016.1 - 0.0
20/03:30pm 17.2 14.2 13.7 80 2.0 NW 22 32 12 17 1016.2 1016.2 0.0
20/03:00pm 17.3 13.8 13.4 78 2.2 NNW 24 32 13 17 1016.1 1016.1 0.0
20/02:30pm 17.4 13.9 13.5 78 2.2 NW 24 32 13 17 1016.1 1016.1 0.0
20/02:00pm 16.2 13.3 14.0 87 1.2 NW 22 30 12 16 1016.2 - 0.0
20/01:30pm 16.0 12.3 13.8 87 1.2 NW 26 43 14 23 1016.4 1016.4 0.0
20/01:00pm 17.8 14.3 13.5 76 2.4 NW 24 30 13 16 1016.4 - 0.0
20/12:30pm 19.3 15.5 13.5 69 3.3 NNW 26 37 14 20 1016.5 1016.5 0.0
20/12:00pm 19.4 15.9 13.3 68 3.5 NNW 24 32 13 17 1016.9 1016.9 0.0
20/11:30am 19.2 15.7 13.4 69 3.3 NNW 24 30 13 16 1017.2 1017.2 0.0
20/11:00am 19.0 16.2 13.2 69 3.3 NNW 20 32 11 17 1017.3 - 0.0
20/10:30am 18.4 14.7 12.8 70 3.1 NNW 24 32 13 17 1017.4 1017.4 0.0
20/10:00am 18.7 15.0 12.7 68 3.4 NNW 24 33 13 18 1017.6 - 0.0
20/09:30am 17.2 12.9 12.1 72 2.8 NNW 26 35 14 19 1017.7 1017.7 0.0
20/09:00am 16.5 13.0 12.1 75 2.4 NNW 22 30 12 16 1017.7 1017.7 0.0
20/08:30am 16.2 12.0 11.2 72 2.7 NNW 24 33 13 18 1017.6 1017.6 0.0
20/08:00am 15.8 11.9 10.8 72 2.7 NNW 22 30 12 16 1017.4 - 0.0
20/07:30am 15.7 12.2 10.9 73 2.6 NNW 20 32 11 17 1017.2 1017.2 0.0
20/07:00am 15.4 11.6 11.0 75 2.3 NNW 22 32 12 17 1016.9 - 0.0
20/06:30am 13.4 10.9 9.8 79 1.8 N 13 19 7 10 1016.8 1016.8 0.0
20/06:00am 13.2 11.8 9.6 79 1.8 N 7 11 4 6 1016.6 1016.6 0.0
20/05:30am 12.7 10.1 9.2 79 1.8 N 13 15 7 8 1016.4 1016.4 0.0
20/05:00am 12.1 10.4 8.4 78 1.8 N 7 11 4 6 1016.4 - 0.0
20/04:30am 12.0 9.9 8.1 77 1.9 N 9 11 5 6 1016.3 1016.3 0.0
20/04:00am 11.7 10.2 8.4 80 1.6 N 6 7 3 4 1016.2 - 0.0
20/03:30am 11.8 10.2 8.6 81 1.6 NNE 7 11 4 6 1016.3 1016.3 0.0
20/03:00am 12.0 10.0 8.7 80 1.6 NNE 9 11 5 6 1016.3 1016.3 0.0
20/02:30am 11.9 10.0 9.1 83 1.4 N 9 11 5 6 1016.6 1016.6 0.0
20/02:00am 11.8 10.5 9.2 84 1.3 N 6 9 3 5 1016.9 - 0.0
20/01:30am 12.5 11.1 8.8 78 1.8 NNE 6 7 3 4 1017.2 1017.2 0.0
20/01:00am 13.9 11.8 9.7 76 2.2 NNW 11 17 6 9 1017.4 - 0.0
20/12:30am 13.2 10.8 8.5 73 2.3 N 11 13 6 7 1017.1 1017.1 0.0
20/12:00am 12.2 10.7 8.5 78 1.8 NE 6 9 3 5 1017.1 1017.1 0.0
 
Date/Time
CST
Temp
°C
App
Temp
°C
Dew
Point
Rel
Hum
%
Delta-T
°C
Wind Press
QNH
hPa
Press
MSL
hPa
Rain
since 9 am
mm
Dir
 
Spd
km/h
Gust
km/h
Spd
kts
Gust
kts
19/11:30pm 11.7 11.5 8.9 83 1.4 CALM 0 4 0 2 1017.5 1017.5 0.0
19/11:00pm 11.6 11.3 8.8 83 1.4 CALM 0 0 0 0 1017.7 - 0.0
19/10:30pm 11.2 10.1 8.4 83 1.4 NNE 4 6 2 3 1018.0 1018.0 0.0
19/10:00pm 11.4 10.3 8.4 82 1.5 NE 4 7 2 4 1018.4 - 0.0
19/09:30pm 11.3 10.5 8.2 81 1.5 NE 2 6 1 3 1018.3 1018.3 0.0
19/09:00pm 11.6 10.5 8.6 82 1.5 N 4 6 2 3 1018.6 1018.6 0.0
19/08:30pm 11.8 11.5 8.5 80 1.6 CALM 0 2 0 1 1018.7 1018.7 0.0
19/08:00pm 11.8 11.0 8.3 79 1.7 N 2 9 1 5 1018.8 - 0.0
19/07:30pm 12.3 11.9 8.2 76 2.0 CALM 0 0 0 0 1018.9 1018.9 0.0
19/07:00pm 12.1 11.7 8.4 78 1.8 CALM 0 0 0 0 1018.7 - 0.0
19/06:30pm 12.4 11.6 8.3 76 2.0 N 2 4 1 2 1018.9 1018.9 0.0
19/06:00pm 12.8 10.8 8.7 76 2.0 N 9 11 5 6 1018.9 1018.9 0.0
19/05:30pm 12.7 11.1 8.2 74 2.2 N 6 7 3 4 1018.9 1018.9 0.0
19/05:00pm 14.4 12.1 9.0 70 2.7 NNW 11 15 6 8 1018.9 - 0.0
19/04:30pm 15.2 13.3 7.5 60 3.8 NW 7 9 4 5 1019.1 1019.1 0.0
19/04:00pm 15.3 13.3 7.3 59 4.0 NW 7 9 4 5 1019.4 - 0.0
19/03:30pm 15.4 12.6 6.9 57 4.2 NW 11 13 6 7 1019.6 1019.6 0.0
19/03:00pm 16.0 13.5 6.7 54 4.5 WNW 9 13 5 7 1019.5 1019.5 0.0
19/02:30pm 16.9 14.4 6.4 50 5.1 WNW 9 15 5 8 1019.7 1019.7 0.0
19/02:00pm 17.0 14.8 6.2 49 5.3 WSW 7 15 4 8 1019.7 - 0.0
19/01:30pm 16.7 14.5 6.2 50 5.1 W 7 13 4 7 1020.0 1020.0 0.0
19/01:00pm 16.6 13.7 6.7 52 4.9 SW 11 17 6 9 1020.4 - 0.0
19/12:30pm 16.7 14.8 6.5 51 5.0 W 6 13 3 7 1020.8 1020.8 0.0
19/12:00pm 16.1 14.0 6.5 53 4.7 W 7 11 4 6 1021.4 1021.4 0.0
19/11:30am 16.1 13.6 6.5 53 4.7 SW 9 15 5 8 1021.8 1021.8 0.0
19/11:00am 16.1 13.7 7.1 55 4.5 SSE 9 17 5 9 1022.1 - 0.0
19/10:30am 15.6 13.1 8.1 61 3.8 S 11 19 6 10 1022.4 1022.4 0.0
19/10:00am 15.7 13.8 6.7 55 4.4 W 6 9 3 5 1022.5 - 0.0
19/09:30am 14.8 12.5 7.6 62 3.5 NW 9 13 5 7 1022.7 1022.7 0.0
19/09:00am 14.2 12.5 7.7 65 3.2 WNW 6 7 3 4 1022.8 1022.8 0.0
19/08:30am 13.6 12.4 8.2 70 2.7 N 4 6 2 3 1022.7 1022.7 0.0
19/08:00am 12.0 10.9 8.3 78 1.8 NW 4 6 2 3 1022.6 - 0.0
19/07:30am 11.2 10.8 8.1 81 1.5 CALM 0 6 0 3 1022.4 1022.4 0.0
19/07:00am 10.7 9.4 7.6 81 1.5 E 4 4 2 2 1022.2 - 0.0
19/06:30am 10.8 10.3 8.0 83 1.4 CALM 0 7 0 4 1022.1 1022.1 0.0
19/06:00am 10.8 10.3 8.0 83 1.4 CALM 0 0 0 0 1021.9 1021.9 0.0
19/05:30am 10.7 10.2 7.9 83 1.3 CALM 0 0 0 0 1021.8 1021.8 0.0
19/05:00am 10.7 10.1 7.6 81 1.5 CALM 0 0 0 0 1021.8 - 0.0
19/04:30am 11.2 10.7 7.7 79 1.7 CALM 0 0 0 0 1021.7 1021.7 0.0
19/04:00am 10.7 9.8 6.1 73 2.1 CALM 0 0 0 0 1021.6 - 0.0
19/03:30am 11.2 10.1 5.3 67 2.7 CALM 0 4 0 2 1021.6 1021.6 0.0
19/03:00am 12.9 11.1 5.6 61 3.4 SSW 4 7 2 4 1021.7 1021.7 0.0
19/02:30am 13.5 11.2 5.7 59 3.7 SSW 7 13 4 7 1021.8 1021.8 0.0
19/02:00am 13.1 11.0 5.8 61 3.4 S 6 11 3 6 1022.1 - 0.0
19/01:30am 12.7 10.8 6.5 66 2.9 S 6 7 3 4 1022.4 1022.4 0.0
19/01:00am 12.9 10.1 6.9 67 2.9 S 11 13 6 7 1022.3 - 0.0
19/12:30am 13.2 10.9 7.6 69 2.7 S 9 15 5 8 1022.4 1022.4 0.0
19/12:00am 13.2 11.2 7.0 66 3.0 S 7 11 4 6 1022.5 1022.5 0.0
 
Date/Time
CST
Temp
°C
App
Temp
°C
Dew
Point
Rel
Hum
%
Delta-T
°C
Wind Press
QNH
hPa
Press
MSL
hPa
Rain
since 9 am
mm
Dir
 
Spd
km/h
Gust
km/h
Spd
kts
Gust
kts
18/11:30pm 13.6 11.3 7.4 66 3.0 S 9 13 5 7 1022.6 1022.6 0.0
18/11:00pm 13.5 11.0 6.6 63 3.3 S 9 13 5 7 1022.8 - 0.0
18/10:30pm 13.1 11.2 6.9 66 3.0 S 6 9 3 5 1023.0 1023.0 0.0
18/10:00pm 13.5 10.8 7.5 67 2.9 S 11 13 6 7 1023.2 - 0.0
18/09:30pm 13.6 11.0 7.8 68 2.8 S 11 17 6 9 1023.1 1023.1 0.0
18/09:00pm 12.7 10.9 7.2 69 2.6 S 6 9 3 5 1022.9 1022.9 0.0
18/08:30pm 12.3 10.7 8.2 76 2.0 S 6 9 3 5 1023.0 1023.0 0.0
18/08:00pm 11.4 9.7 7.5 77 1.9 S 6 7 3 4 1022.8 - 0.0
18/07:30pm 11.1 9.2 7.4 78 1.8 S 7 9 4 5 1022.7 1022.7 0.0
18/07:00pm 11.5 9.2 7.6 77 1.9 S 9 9 5 5 1022.6 - 0.0
18/06:30pm 12.1 10.2 7.4 73 2.3 S 7 11 4 6 1022.3 1022.3 0.0
18/06:00pm 13.5 10.4 7.3 66 3.0 S 13 17 7 9 1022.2 1022.2 0.0
18/05:30pm 14.6 10.6 8.1 65 3.2 SSW 19 26 10 14 1022.1 1022.1 0.0
18/05:00pm 15.1 11.0 8.8 66 3.2 SSW 20 30 11 16 1021.8 - 0.0
18/04:30pm 16.2 12.1 7.9 58 4.2 SSW 19 26 10 14 1021.8 1021.8 0.0
18/04:00pm 16.6 12.4 7.5 55 4.6 SSW 19 30 10 16 1021.6 - 0.0
18/03:30pm 16.7 11.6 7.6 55 4.5 SSW 24 33 13 18 1021.6 1021.6 0.0
18/03:00pm 17.4 11.9 7.7 53 4.9 SSW 26 39 14 21 1021.4 1021.4 0.0
18/02:30pm 17.5 12.0 7.5 52 5.0 SSW 26 35 14 19 1021.2 1021.2 0.0
18/02:00pm 17.6 12.6 8.2 54 4.8 SSW 24 35 13 19 1021.1 - 0.0
18/01:30pm 17.8 12.8 8.1 53 4.9 SSW 24 37 13 20 1021.1 1021.1 0.0
18/01:00pm 18.0 12.8 7.4 50 5.3 SSW 24 35 13 19 1021.0 - 0.0
18/12:30pm 18.0 12.7 8.3 53 5.0 SSW 26 35 14 19 1021.2 1021.2 0.0
18/12:00pm 16.1 10.4 9.8 66 3.3 SSW 30 44 16 24 1021.6 1021.6 0.0
18/11:30am 17.9 13.0 8.5 54 4.8 SSW 24 33 13 18 1021.3 1021.3 0.0
18/11:00am 17.6 12.2 8.2 54 4.8 SSW 26 35 14 19 1021.0 - 0.0
18/10:30am 17.7 13.2 8.6 55 4.7 SSW 22 32 12 17 1020.8 1020.8 0.0
18/10:00am 17.3 12.6 7.9 54 4.8 SSW 22 32 12 17 1020.7 - 0.0
18/09:30am 16.5 10.5 7.2 54 4.6 SSW 28 37 15 20 1020.6 1020.6 0.0
18/09:00am 16.4 11.7 7.6 56 4.4 SSW 22 33 12 18 1020.4 1020.4 1.8
18/08:30am 15.5 10.9 9.8 69 3.0 SSW 24 35 13 19 1019.9 1019.9 1.8
18/08:00am 15.4 11.4 9.1 66 3.2 SSW 20 33 11 18 1019.5 - 1.8
18/07:30am 14.7 10.5 9.7 72 2.6 SSW 22 33 12 18 1018.9 1018.9 1.8
18/07:00am 14.3 10.2 10.1 76 2.2 SSW 22 32 12 17 1018.3 - 1.8
18/06:30am 14.3 9.9 10.5 78 2.0 SSW 24 33 13 18 1017.7 1017.7 1.8
18/06:00am 14.7 12.5 13.4 92 0.7 SSW 17 24 9 13 1017.3 1017.3 1.8
18/05:30am 14.5 12.4 13.7 95 0.4 SW 17 28 9 15 1017.2 1017.2 1.8
18/05:00am 14.6 9.7 13.8 95 0.4 SW 32 44 17 24 1016.9 - 1.6
18/04:55am 14.7 9.6 13.7 94 0.6 SW 33 44 18 24 1016.8 - 1.6
18/04:30am 16.5 14.9 15.0 91 0.9 W 17 26 9 14 1016.2 1016.2 0.8
18/04:00am 15.8 14.8 14.5 92 0.7 WNW 13 19 7 10 1016.0 - 0.8
18/03:30am 15.8 14.8 14.7 93 0.6 WNW 13 20 7 11 1015.9 1015.9 0.8
18/03:00am 16.0 15.1 14.9 93 0.6 NW 13 20 7 11 1015.6 1015.6 0.8
18/02:30am 15.8 14.4 14.5 92 0.7 WNW 15 22 8 12 1016.3 1016.3 0.6
18/02:00am 16.7 14.4 15.7 94 0.6 NW 22 26 12 14 1016.5 - 0.4
18/01:30am 16.9 14.8 15.2 90 1.0 NW 20 30 11 16 1016.5 1016.5 0.0
18/01:00am 16.8 14.6 14.8 88 1.2 NNW 20 28 11 15 1016.6 - 0.0
18/12:30am 17.0 14.6 14.5 85 1.4 NNW 20 28 11 15 1016.4 1016.4 0.0
18/12:00am 16.9 14.4 13.6 81 1.9 N 19 28 10 15 1016.7 1016.7 0.0
 
Date/Time
CST
Temp
°C
App
Temp
°C
Dew
Point
Rel
Hum
%
Delta-T
°C
Wind Press
QNH
hPa
Press
MSL
hPa
Rain
since 9 am
mm
Dir
 
Spd
km/h
Gust
km/h
Spd
kts
Gust
kts
17/11:30pm 16.1 13.3 12.7 80 1.9 N 19 24 10 13 1016.9 1016.9 0.0
17/11:00pm 15.5 13.6 11.7 78 2.1 N 13 20 7 11 1017.3 - 0.0

Other Formats:

Comma delimited format used in spreadsheet applications
http://www.bom.gov.au/fwo/IDS60801/IDS60801.95816.axf

JavaScript Object Notation format (JSON) in row-major order
http://www.bom.gov.au/fwo/IDS60801/IDS60801.95816.json